logo
Search for airport 
image banner adimage banner adimage banner ad
image banner ad

CSA7 - Drummondville

Located in , Canada

ICAO - CSA7, IATA -

Data provided by Airmate  

General information

Coordinates: N45°51'16" W72°23'22"
Elevation is 320 feet MSL.
Magnetic variation is -15.4811° East
View others Airports in Quebec

Operational data

Special qualification required
Current time UTC:
Current local time:
Weather at : CYRQ - Trois-Rivieres ( 60 km )
METAR: CYRQ 230913Z AUTO 16002KT 1 3/4SM BR OVC004 00/M00 A2949 RMK SLP990
TAF: TAF AMD CYRQ 230803Z 2308/2320 VRB03KT 4SM BR OVC006 TEMPO 2308/2315 P6SM NSW OVC015 PROB30 2308/2311 OVC003 FM231500 20012KT P6SM OVC012 TEMPO 2315/2318 OVC008 RMK FCST BASED ON AUTO OBS. NXT FCST BY 231400Z
View NOTAMs / SUP AIP / TFR affecting this airport [VIEW]
Communications frequencies: [VIEW]

Runways:

RWY identifierQFULength (ft)Width (ft)SurfaceLDA (ft)
W00WATER

Airport contact information

Address: Canada

Satellite view of CSA7